sensor_id;sensor_type;location;lat;lon;timestamp;pressure;altitude;pressure_sealevel;temperature;humidity
24234;BME280;12365;43.554;1.388;2022-10-16T00:01:09;99602.22;;;21.86;56.86
24234;BME280;12365;43.554;1.388;2022-10-16T00:03:36;99605.75;;;21.83;56.80
24234;BME280;12365;43.554;1.388;2022-10-16T00:06:01;99605.75;;;21.83;56.92
24234;BME280;12365;43.554;1.388;2022-10-16T00:08:27;99601.31;;;21.84;56.91
24234;BME280;12365;43.554;1.388;2022-10-16T00:11:02;99598.69;;;21.85;56.85
24234;BME280;12365;43.554;1.388;2022-10-16T00:13:28;99602.19;;;21.84;57.03
24234;BME280;12365;43.554;1.388;2022-10-16T00:15:55;99602.22;;;21.83;57.29
24234;BME280;12365;43.554;1.388;2022-10-16T00:18:21;99601.31;;;21.84;57.24
24234;BME280;12365;43.554;1.388;2022-10-16T00:20:47;99599.56;;;21.86;57.22
24234;BME280;12365;43.554;1.388;2022-10-16T00:23:12;99594.25;;;21.86;57.04
24234;BME280;12365;43.554;1.388;2022-10-16T00:25:37;99594.22;;;21.88;57.22
24234;BME280;12365;43.554;1.388;2022-10-16T00:28:03;99595.13;;;21.88;57.46
24234;BME280;12365;43.554;1.388;2022-10-16T00:30:28;99603.97;;;21.89;57.32
24234;BME280;12365;43.554;1.388;2022-10-16T00:32:54;99598.66;;;21.90;57.34
24234;BME280;12365;43.554;1.388;2022-10-16T00:35:20;99592.47;;;21.88;57.35
24234;BME280;12365;43.554;1.388;2022-10-16T00:37:45;99591.56;;;21.88;57.46
24234;BME280;12365;43.554;1.388;2022-10-16T00:40:10;99591.56;;;21.89;57.52
24234;BME280;12365;43.554;1.388;2022-10-16T00:42:36;99596.00;;;21.89;57.41
24234;BME280;12365;43.554;1.388;2022-10-16T00:45:03;99591.56;;;21.89;57.52
24234;BME280;12365;43.554;1.388;2022-10-16T00:47:34;99595.13;;;21.88;57.53
24234;BME280;12365;43.554;1.388;2022-10-16T00:50:24;99596.00;;;21.89;57.46
24234;BME280;12365;43.554;1.388;2022-10-16T00:52:52;99586.25;;;21.88;57.59
24234;BME280;12365;43.554;1.388;2022-10-16T00:55:18;99595.13;;;21.88;57.65
24234;BME280;12365;43.554;1.388;2022-10-16T00:57:45;99591.56;;;21.88;57.74
24234;BME280;12365;43.554;1.388;2022-10-16T01:00:14;99601.31;;;21.90;57.91
24234;BME280;12365;43.554;1.388;2022-10-16T01:02:41;99600.44;;;21.88;57.89
24234;BME280;12365;43.554;1.388;2022-10-16T01:05:06;99602.22;;;21.91;57.74
24234;BME280;12365;43.554;1.388;2022-10-16T01:20:37;99594.22;;;21.98;57.52
24234;BME280;12365;43.554;1.388;2022-10-16T01:26:04;99609.25;;;22.02;57.93
24234;BME280;12365;43.554;1.388;2022-10-16T01:31:40;99610.16;;;22.07;57.87
24234;BME280;12365;43.554;1.388;2022-10-16T01:34:15;99604.81;;;22.07;57.96
24234;BME280;12365;43.554;1.388;2022-10-16T01:36:50;99594.22;;;22.09;58.15
24234;BME280;12365;43.554;1.388;2022-10-16T01:39:19;99601.31;;;22.05;58.16
24234;BME280;12365;43.554;1.388;2022-10-16T01:41:55;99601.31;;;22.08;58.37
24234;BME280;12365;43.554;1.388;2022-10-16T01:44:26;99607.50;;;22.11;58.48
24234;BME280;12365;43.554;1.388;2022-10-16T01:46:53;99600.41;;;22.11;58.50
24234;BME280;12365;43.554;1.388;2022-10-16T01:49:21;99599.53;;;22.11;58.52
24234;BME280;12365;43.554;1.388;2022-10-16T01:51:50;99603.94;;;22.10;58.70
24234;BME280;12365;43.554;1.388;2022-10-16T01:54:18;99602.19;;;22.11;58.87
24234;BME280;12365;43.554;1.388;2022-10-16T01:56:46;99602.19;;;22.09;58.81
24234;BME280;12365;43.554;1.388;2022-10-16T01:59:15;99596.00;;;22.08;59.05
24234;BME280;12365;43.554;1.388;2022-10-16T02:01:49;99609.28;;;22.05;58.77
24234;BME280;12365;43.554;1.388;2022-10-16T02:04:20;99610.19;;;21.98;59.03
24234;BME280;12365;43.554;1.388;2022-10-16T02:06:47;99606.63;;;21.96;59.24
24234;BME280;12365;43.554;1.388;2022-10-16T02:09:13;99609.28;;;21.93;59.37
24234;BME280;12365;43.554;1.388;2022-10-16T02:11:42;99603.97;;;21.92;59.48
24234;BME280;12365;43.554;1.388;2022-10-16T02:14:07;99602.19;;;21.88;59.54
24234;BME280;12365;43.554;1.388;2022-10-16T02:16:42;99596.00;;;21.87;59.84
24234;BME280;12365;43.554;1.388;2022-10-16T02:19:08;99601.31;;;21.82;59.73
24234;BME280;12365;43.554;1.388;2022-10-16T02:21:49;99592.47;;;21.82;59.83
24234;BME280;12365;43.554;1.388;2022-10-16T02:27:02;99592.47;;;21.80;60.03
24234;BME280;12365;43.554;1.388;2022-10-16T02:29:29;99580.09;;;21.78;60.04
24234;BME280;12365;43.554;1.388;2022-10-16T02:31:59;99590.72;;;21.78;60.10
24234;BME280;12365;43.554;1.388;2022-10-16T02:34:27;99584.50;;;21.77;60.15
24234;BME280;12365;43.554;1.388;2022-10-16T02:36:55;99580.97;;;21.75;60.41
24234;BME280;12365;43.554;1.388;2022-10-16T02:39:22;99578.31;;;21.75;60.35
24234;BME280;12365;43.554;1.388;2022-10-16T02:41:48;99587.19;;;21.73;60.51
24234;BME280;12365;43.554;1.388;2022-10-16T02:44:13;99581.84;;;21.71;60.44
24234;BME280;12365;43.554;1.388;2022-10-16T02:46:39;99573.00;;;21.71;60.67
24234;BME280;12365;43.554;1.388;2022-10-16T02:49:04;99573.91;;;21.68;60.37
24234;BME280;12365;43.554;1.388;2022-10-16T02:51:30;99575.69;;;21.68;60.52
24234;BME280;12365;43.554;1.388;2022-10-16T02:53:55;99579.22;;;21.68;60.58
24234;BME280;12365;43.554;1.388;2022-10-16T02:56:20;99581.00;;;21.68;60.80
24234;BME280;12365;43.554;1.388;2022-10-16T02:58:46;99573.00;;;21.66;60.86
24234;BME280;12365;43.554;1.388;2022-10-16T03:01:11;99577.44;;;21.66;60.83
24234;BME280;12365;43.554;1.388;2022-10-16T03:03:38;99581.84;;;21.63;60.79
24234;BME280;12365;43.554;1.388;2022-10-16T03:06:03;99583.63;;;21.61;61.07
24234;BME280;12365;43.554;1.388;2022-10-16T03:08:29;99576.53;;;21.62;61.01
24234;BME280;12365;43.554;1.388;2022-10-16T03:10:54;99595.13;;;21.62;61.14
24234;BME280;12365;43.554;1.388;2022-10-16T03:13:20;99588.94;;;21.63;61.08
24234;BME280;12365;43.554;1.388;2022-10-16T03:15:46;99592.47;;;21.63;61.04
24234;BME280;12365;43.554;1.388;2022-10-16T03:18:11;99594.25;;;21.64;61.06
24234;BME280;12365;43.554;1.388;2022-10-16T03:20:37;99590.72;;;21.62;61.22
24234;BME280;12365;43.554;1.388;2022-10-16T03:23:03;99591.59;;;21.63;61.25
24234;BME280;12365;43.554;1.388;2022-10-16T03:25:28;99589.81;;;21.63;61.48
24234;BME280;12365;43.554;1.388;2022-10-16T03:27:53;99589.81;;;21.62;61.44
24234;BME280;12365;43.554;1.388;2022-10-16T03:30:19;99583.63;;;21.64;61.46
24234;BME280;12365;43.554;1.388;2022-10-16T03:32:44;99585.41;;;21.66;61.42
24234;BME280;12365;43.554;1.388;2022-10-16T03:35:10;99583.63;;;21.64;61.63
24234;BME280;12365;43.554;1.388;2022-10-16T03:37:36;99586.28;;;21.66;61.63
24234;BME280;12365;43.554;1.388;2022-10-16T03:40:02;99584.53;;;21.65;61.44
24234;BME280;12365;43.554;1.388;2022-10-16T03:42:28;99588.06;;;21.66;61.65
24234;BME280;12365;43.554;1.388;2022-10-16T03:44:53;99580.09;;;21.66;61.69
24234;BME280;12365;43.554;1.388;2022-10-16T03:47:18;99585.41;;;21.66;61.72
24234;BME280;12365;43.554;1.388;2022-10-16T03:49:47;99591.59;;;21.66;61.65
24234;BME280;12365;43.554;1.388;2022-10-16T03:52:12;99591.59;;;21.68;61.78
24234;BME280;12365;43.554;1.388;2022-10-16T03:54:38;99598.69;;;21.70;61.80
24234;BME280;12365;43.554;1.388;2022-10-16T03:57:03;99594.25;;;21.74;61.96
24234;BME280;12365;43.554;1.388;2022-10-16T03:59:28;99595.13;;;21.74;61.82
24234;BME280;12365;43.554;1.388;2022-10-16T04:01:54;99596.00;;;21.75;61.91
24234;BME280;12365;43.554;1.388;2022-10-16T04:04:19;99599.56;;;21.77;61.86
24234;BME280;12365;43.554;1.388;2022-10-16T04:06:45;99599.56;;;21.77;62.18
24234;BME280;12365;43.554;1.388;2022-10-16T04:09:10;99596.03;;;21.78;62.20
24234;BME280;12365;43.554;1.388;2022-10-16T04:11:35;99596.91;;;21.77;61.95
24234;BME280;12365;43.554;1.388;2022-10-16T04:14:01;99599.53;;;21.80;62.17
24234;BME280;12365;43.554;1.388;2022-10-16T04:16:26;99596.88;;;21.80;62.32
24234;BME280;12365;43.554;1.388;2022-10-16T04:18:51;99591.56;;;21.80;61.99
24234;BME280;12365;43.554;1.388;2022-10-16T04:21:17;99589.81;;;21.80;62.22
24234;BME280;12365;43.554;1.388;2022-10-16T04:23:42;99589.81;;;21.80;62.39
24234;BME280;12365;43.554;1.388;2022-10-16T04:26:08;99592.47;;;21.82;62.30
24234;BME280;12365;43.554;1.388;2022-10-16T04:28:33;99587.16;;;21.82;62.28
24234;BME280;12365;43.554;1.388;2022-10-16T04:30:59;99590.69;;;21.84;62.52
24234;BME280;12365;43.554;1.388;2022-10-16T04:33:24;99588.03;;;21.84;62.36
24234;BME280;12365;43.554;1.388;2022-10-16T04:35:56;99594.25;;;21.86;62.20
24234;BME280;12365;43.554;1.388;2022-10-16T04:38:21;99589.81;;;21.86;62.38
24234;BME280;12365;43.554;1.388;2022-10-16T04:40:47;99602.19;;;21.88;62.46
24234;BME280;12365;43.554;1.388;2022-10-16T04:43:12;99606.63;;;21.87;62.43
24234;BME280;12365;43.554;1.388;2022-10-16T04:45:38;99613.72;;;21.88;62.64
24234;BME280;12365;43.554;1.388;2022-10-16T04:48:03;99615.50;;;21.91;62.50
24234;BME280;12365;43.554;1.388;2022-10-16T04:50:28;99616.38;;;21.90;62.46
24234;BME280;12365;43.554;1.388;2022-10-16T04:52:54;99617.25;;;21.92;62.54
24234;BME280;12365;43.554;1.388;2022-10-16T04:55:19;99626.09;;;21.92;62.67
24234;BME280;12365;43.554;1.388;2022-10-16T04:57:45;99617.25;;;21.93;62.59
24234;BME280;12365;43.554;1.388;2022-10-16T05:00:10;99629.66;;;21.94;62.56
24234;BME280;12365;43.554;1.388;2022-10-16T05:02:36;99626.13;;;21.95;62.53
24234;BME280;12365;43.554;1.388;2022-10-16T05:05:01;99624.34;;;21.97;62.73
24234;BME280;12365;43.554;1.388;2022-10-16T05:07:27;99621.66;;;21.97;62.71
24234;BME280;12365;43.554;1.388;2022-10-16T05:09:52;99631.44;;;21.98;62.70
24234;BME280;12365;43.554;1.388;2022-10-16T05:12:18;99629.66;;;21.99;62.68
24234;BME280;12365;43.554;1.388;2022-10-16T05:14:44;99636.75;;;21.98;62.93
24234;BME280;12365;43.554;1.388;2022-10-16T05:17:09;99632.31;;;21.99;62.77
24234;BME280;12365;43.554;1.388;2022-10-16T05:19:34;99639.38;;;22.00;62.73
24234;BME280;12365;43.554;1.388;2022-10-16T05:22:00;99647.38;;;22.01;63.02
24234;BME280;12365;43.554;1.388;2022-10-16T05:24:25;99642.94;;;22.00;62.83
24234;BME280;12365;43.554;1.388;2022-10-16T05:26:51;99650.03;;;22.01;62.92
24234;BME280;12365;43.554;1.388;2022-10-16T05:29:16;99650.91;;;22.02;62.95
24234;BME280;12365;43.554;1.388;2022-10-16T05:31:42;99650.03;;;22.03;62.88
24234;BME280;12365;43.554;1.388;2022-10-16T05:34:07;99656.22;;;22.03;62.91
24234;BME280;12365;43.554;1.388;2022-10-16T05:36:32;99651.81;;;22.05;62.87
24234;BME280;12365;43.554;1.388;2022-10-16T05:38:58;99650.91;;;22.03;62.77
24234;BME280;12365;43.554;1.388;2022-10-16T05:41:23;99656.22;;;22.03;62.68
24234;BME280;12365;43.554;1.388;2022-10-16T05:43:50;99657.13;;;22.05;62.93
24234;BME280;12365;43.554;1.388;2022-10-16T05:46:16;99651.81;;;22.05;62.88
24234;BME280;12365;43.554;1.388;2022-10-16T05:48:42;99652.69;;;22.06;62.92
24234;BME280;12365;43.554;1.388;2022-10-16T05:51:10;99650.91;;;22.08;62.98
24234;BME280;12365;43.554;1.388;2022-10-16T05:53:37;99650.00;;;22.07;62.81
24234;BME280;12365;43.554;1.388;2022-10-16T05:56:04;99654.44;;;22.12;63.00
24234;BME280;12365;43.554;1.388;2022-10-16T05:58:32;99654.44;;;22.12;63.06
24234;BME280;12365;43.554;1.388;2022-10-16T06:01:07;99650.88;;;22.13;63.06
24234;BME280;12365;43.554;1.388;2022-10-16T06:03:34;99656.19;;;22.13;62.98
24234;BME280;12365;43.554;1.388;2022-10-16T06:06:17;99656.22;;;22.16;62.96
24234;BME280;12365;43.554;1.388;2022-10-16T06:08:44;99658.88;;;22.16;62.92
24234;BME280;12365;43.554;1.388;2022-10-16T06:11:24;99657.97;;;22.17;62.96
24234;BME280;12365;43.554;1.388;2022-10-16T06:13:55;99650.00;;;22.15;62.95
24234;BME280;12365;43.554;1.388;2022-10-16T06:16:22;99662.41;;;22.16;62.90
24234;BME280;12365;43.554;1.388;2022-10-16T06:18:51;99668.63;;;22.17;62.98
24234;BME280;12365;43.554;1.388;2022-10-16T06:21:19;99663.28;;;22.17;63.01
24234;BME280;12365;43.554;1.388;2022-10-16T06:23:45;99665.97;;;22.20;63.03
24234;BME280;12365;43.554;1.388;2022-10-16T06:26:15;99673.94;;;22.23;62.94
24234;BME280;12365;43.554;1.388;2022-10-16T06:28:42;99681.94;;;22.26;62.94
24234;BME280;12365;43.554;1.388;2022-10-16T06:31:09;99677.47;;;22.28;63.15
24234;BME280;12365;43.554;1.388;2022-10-16T06:33:36;99680.16;;;22.29;62.99
24234;BME280;12365;43.554;1.388;2022-10-16T06:36:11;99674.81;;;22.33;63.03
24234;BME280;12365;43.554;1.388;2022-10-16T06:38:37;99670.41;;;22.36;63.01
24234;BME280;12365;43.554;1.388;2022-10-16T06:41:04;99681.00;;;22.38;62.92
24234;BME280;12365;43.554;1.388;2022-10-16T06:43:31;99676.56;;;22.38;62.99
24234;BME280;12365;43.554;1.388;2022-10-16T06:45:58;99682.78;;;22.40;62.95
24234;BME280;12365;43.554;1.388;2022-10-16T06:48:23;99689.88;;;22.41;62.86
24234;BME280;12365;43.554;1.388;2022-10-16T06:51:03;99691.66;;;22.44;63.01
24234;BME280;12365;43.554;1.388;2022-10-16T06:53:30;99692.53;;;22.43;63.10
24234;BME280;12365;43.554;1.388;2022-10-16T06:55:56;99702.28;;;22.45;62.98
24234;BME280;12365;43.554;1.388;2022-10-16T06:58:22;99707.59;;;22.48;62.91
24234;BME280;12365;43.554;1.388;2022-10-16T07:00:48;99716.44;;;22.50;62.89
24234;BME280;12365;43.554;1.388;2022-10-16T07:03:14;99711.13;;;22.50;63.03
24234;BME280;12365;43.554;1.388;2022-10-16T07:05:43;99701.38;;;22.54;62.57
24234;BME280;12365;43.554;1.388;2022-10-16T07:08:08;99707.59;;;22.56;62.76
24234;BME280;12365;43.554;1.388;2022-10-16T07:10:35;99716.44;;;22.60;62.89
24234;BME280;12365;43.554;1.388;2022-10-16T07:13:01;99714.66;;;22.63;62.75
24234;BME280;12365;43.554;1.388;2022-10-16T07:15:26;99727.94;;;22.69;62.70
24234;BME280;12365;43.554;1.388;2022-10-16T07:17:52;99719.97;;;22.74;62.60
24234;BME280;12365;43.554;1.388;2022-10-16T07:20:18;99727.03;;;22.78;62.50
24234;BME280;12365;43.554;1.388;2022-10-16T07:22:44;99724.34;;;22.83;62.64
24234;BME280;12365;43.554;1.388;2022-10-16T07:25:09;99729.66;;;22.86;62.45
24234;BME280;12365;43.554;1.388;2022-10-16T07:27:36;99725.25;;;22.89;62.26
24234;BME280;12365;43.554;1.388;2022-10-16T07:30:02;99734.09;;;22.91;62.23
24234;BME280;12365;43.554;1.388;2022-10-16T07:32:28;99732.31;;;22.95;62.20
24234;BME280;12365;43.554;1.388;2022-10-16T07:34:53;99744.75;;;22.98;62.30
24234;BME280;12365;43.554;1.388;2022-10-16T07:37:21;99741.19;;;22.99;62.09
24234;BME280;12365;43.554;1.388;2022-10-16T07:39:46;99750.03;;;23.04;62.20
24234;BME280;12365;43.554;1.388;2022-10-16T07:42:12;99740.28;;;23.07;61.99
24234;BME280;12365;43.554;1.388;2022-10-16T07:44:37;99746.47;;;23.14;61.79
24234;BME280;12365;43.554;1.388;2022-10-16T07:47:02;99751.78;;;23.20;61.69
24234;BME280;12365;43.554;1.388;2022-10-16T07:49:28;99754.38;;;23.34;61.78
24234;BME280;12365;43.554;1.388;2022-10-16T07:51:53;99753.38;;;23.52;61.53
24234;BME280;12365;43.554;1.388;2022-10-16T07:54:18;99752.44;;;23.65;61.07
24234;BME280;12365;43.554;1.388;2022-10-16T07:56:44;99752.38;;;23.81;61.23
24234;BME280;12365;43.554;1.388;2022-10-16T07:59:09;99754.06;;;23.95;60.90
24234;BME280;12365;43.554;1.388;2022-10-16T08:01:35;99761.97;;;24.06;60.61
24234;BME280;12365;43.554;1.388;2022-10-16T08:04:00;99755.78;;;24.06;60.53
24234;BME280;12365;43.554;1.388;2022-10-16T08:06:26;99764.66;;;24.00;60.35
24234;BME280;12365;43.554;1.388;2022-10-16T08:08:51;99774.50;;;23.92;60.35
24234;BME280;12365;43.554;1.388;2022-10-16T08:11:17;99769.25;;;23.83;60.52
24234;BME280;12365;43.554;1.388;2022-10-16T08:13:42;99763.91;;;23.79;60.49
24234;BME280;12365;43.554;1.388;2022-10-16T08:16:08;99775.47;;;23.83;60.59
24234;BME280;12365;43.554;1.388;2022-10-16T08:18:36;99767.44;;;23.88;60.45
24234;BME280;12365;43.554;1.388;2022-10-16T08:21:02;99777.19;;;23.92;60.56
24234;BME280;12365;43.554;1.388;2022-10-16T08:23:28;99778.03;;;23.97;60.54
24234;BME280;12365;43.554;1.388;2022-10-16T08:25:54;99772.66;;;24.00;60.53
24234;BME280;12365;43.554;1.388;2022-10-16T08:28:20;99774.38;;;24.10;60.41
24234;BME280;12365;43.554;1.388;2022-10-16T08:30:46;99769.81;;;24.28;60.26
24234;BME280;12365;43.554;1.388;2022-10-16T08:33:11;99778.59;;;24.40;59.73
24234;BME280;12365;43.554;1.388;2022-10-16T08:35:36;99781.25;;;24.47;59.71
24234;BME280;12365;43.554;1.388;2022-10-16T08:38:06;99781.19;;;24.54;59.74
24234;BME280;12365;43.554;1.388;2022-10-16T08:40:33;99781.91;;;24.70;59.30
24234;BME280;12365;43.554;1.388;2022-10-16T08:46:06;99791.47;;;24.94;59.33
24234;BME280;12365;43.554;1.388;2022-10-16T08:48:48;99791.44;;;24.97;58.76
24234;BME280;12365;43.554;1.388;2022-10-16T08:51:35;99802.81;;;25.15;58.95
24234;BME280;12365;43.554;1.388;2022-10-16T08:54:03;99800.09;;;25.21;58.54
24234;BME280;12365;43.554;1.388;2022-10-16T08:56:29;99808.13;;;25.21;58.20
24234;BME280;12365;43.554;1.388;2022-10-16T08:58:58;99802.69;;;25.28;58.05
24234;BME280;12365;43.554;1.388;2022-10-16T09:01:32;99807.78;;;25.47;58.14
24234;BME280;12365;43.554;1.388;2022-10-16T09:06:46;99802.91;;;25.81;57.50
24234;BME280;12365;43.554;1.388;2022-10-16T09:09:41;99808.13;;;25.93;57.07
24234;BME280;12365;43.554;1.388;2022-10-16T09:20:24;99807.84;;;26.12;56.58
24234;BME280;12365;43.554;1.388;2022-10-16T09:25:27;99794.13;;;26.33;55.88
24234;BME280;12365;43.554;1.388;2022-10-16T09:27:53;99811.81;;;26.44;55.78
24234;BME280;12365;43.554;1.388;2022-10-16T09:30:20;99804.66;;;26.43;55.67
24234;BME280;12365;43.554;1.388;2022-10-16T09:32:49;99789.34;;;26.51;55.51
24234;BME280;12365;43.554;1.388;2022-10-16T09:35:18;99785.63;;;26.61;55.09
24234;BME280;12365;43.554;1.388;2022-10-16T09:37:48;99786.28;;;26.77;54.77
24234;BME280;12365;43.554;1.388;2022-10-16T09:40:27;99791.28;;;26.94;54.76
24234;BME280;12365;43.554;1.388;2022-10-16T09:43:01;99779.47;;;27.07;54.43
24234;BME280;12365;43.554;1.388;2022-10-16T09:45:27;99798.94;;;27.15;53.99
24234;BME280;12365;43.554;1.388;2022-10-16T09:47:53;99789.03;;;27.20;53.76
24234;BME280;12365;43.554;1.388;2022-10-16T09:50:24;99786.22;;;27.27;53.65
24234;BME280;12365;43.554;1.388;2022-10-16T09:53:05;99800.22;;;27.41;53.39
24234;BME280;12365;43.554;1.388;2022-10-16T09:55:31;99793.75;;;27.51;53.10
24234;BME280;12365;43.554;1.388;2022-10-16T09:57:56;99796.19;;;27.63;52.66
24234;BME280;12365;43.554;1.388;2022-10-16T10:00:23;99803.97;;;27.76;52.46
24234;BME280;12365;43.554;1.388;2022-10-16T10:02:49;99794.13;;;27.75;52.29
24234;BME280;12365;43.554;1.388;2022-10-16T10:05:28;99793.25;;;27.74;52.24
24234;BME280;12365;43.554;1.388;2022-10-16T10:07:57;99785.13;;;27.79;51.96
24234;BME280;12365;43.554;1.388;2022-10-16T10:10:31;99792.22;;;27.83;51.72
24234;BME280;12365;43.554;1.388;2022-10-16T10:12:57;99784.09;;;27.86;51.49
24234;BME280;12365;43.554;1.388;2022-10-16T10:15:24;99779.34;;;27.97;51.32
24234;BME280;12365;43.554;1.388;2022-10-16T10:17:58;99778.19;;;28.09;50.95
24234;BME280;12365;43.554;1.388;2022-10-16T10:20:34;99781.50;;;28.20;50.77
24234;BME280;12365;43.554;1.388;2022-10-16T10:23:35;99779.53;;;28.28;50.45
24234;BME280;12365;43.554;1.388;2022-10-16T10:26:18;99777.56;;;28.35;50.32
24234;BME280;12365;43.554;1.388;2022-10-16T10:31:36;99788.47;;;28.65;49.81
24234;BME280;12365;43.554;1.388;2022-10-16T10:36:46;99772.28;;;28.68;49.19
24234;BME280;12365;43.554;1.388;2022-10-16T10:45:01;99759.44;;;28.79;48.88
24234;BME280;12365;43.554;1.388;2022-10-16T10:50:14;99770.47;;;29.01;48.50
24234;BME280;12365;43.554;1.388;2022-10-16T10:55:33;99766.81;;;29.05;47.83
24234;BME280;12365;43.554;1.388;2022-10-16T11:06:36;99766.03;;;29.33;47.06
24234;BME280;12365;43.554;1.388;2022-10-16T11:09:25;99763.97;;;29.41;46.62
24234;BME280;12365;43.554;1.388;2022-10-16T11:12:11;99772.78;;;29.46;46.50
24234;BME280;12365;43.554;1.388;2022-10-16T11:17:39;99760.00;;;29.54;46.26
24234;BME280;12365;43.554;1.388;2022-10-16T11:20:31;99759.13;;;29.54;46.17
24234;BME280;12365;43.554;1.388;2022-10-16T11:23:13;99758.41;;;29.47;46.25
24234;BME280;12365;43.554;1.388;2022-10-16T11:25:40;99754.06;;;29.43;46.46
24234;BME280;12365;43.554;1.388;2022-10-16T11:28:28;99752.16;;;29.47;45.80
24234;BME280;12365;43.554;1.388;2022-10-16T11:31:38;99735.16;;;29.46;46.06
24234;BME280;12365;43.554;1.388;2022-10-16T11:36:36;99743.19;;;29.48;45.78
24234;BME280;12365;43.554;1.388;2022-10-16T11:41:54;99746.31;;;29.62;45.50
24234;BME280;12365;43.554;1.388;2022-10-16T11:44:50;99752.59;;;29.63;44.96
24234;BME280;12365;43.554;1.388;2022-10-16T11:47:51;99730.75;;;29.73;45.11
24234;BME280;12365;43.554;1.388;2022-10-16T11:55:52;99699.00;;;29.85;44.13
24234;BME280;12365;43.554;1.388;2022-10-16T12:06:46;99671.69;;;29.97;43.98
24234;BME280;12365;43.554;1.388;2022-10-16T12:09:32;99664.72;;;29.91;44.17
24234;BME280;12365;43.554;1.388;2022-10-16T12:11:59;99661.72;;;29.72;44.20
24234;BME280;12365;43.554;1.388;2022-10-16T12:16:57;99654.50;;;29.74;44.36
24234;BME280;12365;43.554;1.388;2022-10-16T12:19:28;99658.97;;;29.75;44.32
24234;BME280;12365;43.554;1.388;2022-10-16T12:22:01;99656.28;;;29.75;43.83
24234;BME280;12365;43.554;1.388;2022-10-16T12:24:41;99675.88;;;29.79;44.29
24234;BME280;12365;43.554;1.388;2022-10-16T12:27:32;99663.19;;;29.83;43.58
24234;BME280;12365;43.554;1.388;2022-10-16T12:30:03;99672.16;;;29.83;43.95
24234;BME280;12365;43.554;1.388;2022-10-16T12:32:36;99678.19;;;29.90;43.67
24234;BME280;12365;43.554;1.388;2022-10-16T12:35:03;99677.94;;;29.97;43.31
24234;BME280;12365;43.554;1.388;2022-10-16T12:37:38;99689.28;;;30.07;43.24
24234;BME280;12365;43.554;1.388;2022-10-16T12:40:31;99675.84;;;30.07;42.54
24234;BME280;12365;43.554;1.388;2022-10-16T12:42:57;99656.53;;;29.94;42.77
24234;BME280;12365;43.554;1.388;2022-10-16T12:45:26;99652.25;;;29.89;43.26
24234;BME280;12365;43.554;1.388;2022-10-16T12:47:53;99663.97;;;29.86;42.91
24234;BME280;12365;43.554;1.388;2022-10-16T12:50:34;99682.03;;;29.83;42.98
24234;BME280;12365;43.554;1.388;2022-10-16T12:53:00;99668.88;;;29.73;42.91
24234;BME280;12365;43.554;1.388;2022-10-16T12:55:33;99679.13;;;29.60;42.86
24234;BME280;12365;43.554;1.388;2022-10-16T12:58:11;99670.34;;;29.55;42.99
24234;BME280;12365;43.554;1.388;2022-10-16T13:01:02;99669.63;;;29.49;42.82
24234;BME280;12365;43.554;1.388;2022-10-16T13:06:53;99685.66;;;29.52;42.86
24234;BME280;12365;43.554;1.388;2022-10-16T13:27:56;99693.38;;;29.34;43.45
24234;BME280;12365;43.554;1.388;2022-10-16T13:30:29;99686.16;;;29.36;43.19
24234;BME280;12365;43.554;1.388;2022-10-16T13:33:12;99681.75;;;29.34;43.42
24234;BME280;12365;43.554;1.388;2022-10-16T13:35:47;99687.25;;;29.29;43.44
24234;BME280;12365;43.554;1.388;2022-10-16T13:38:20;99697.09;;;29.30;43.50
24234;BME280;12365;43.554;1.388;2022-10-16T13:43:39;99683.19;;;29.16;43.16
24234;BME280;12365;43.554;1.388;2022-10-16T13:46:18;99685.13;;;29.11;43.34
24234;BME280;12365;43.554;1.388;2022-10-16T13:48:43;99675.25;;;29.11;43.31
24234;BME280;12365;43.554;1.388;2022-10-16T13:51:15;99673.47;;;29.12;43.58
24234;BME280;12365;43.554;1.388;2022-10-16T13:53:41;99685.97;;;29.13;43.14
24234;BME280;12365;43.554;1.388;2022-10-16T13:56:12;99686.06;;;29.10;43.20
24234;BME280;12365;43.554;1.388;2022-10-16T13:58:37;99682.44;;;29.11;43.65
24234;BME280;12365;43.554;1.388;2022-10-16T14:01:06;99688.66;;;29.13;43.23
24234;BME280;12365;43.554;1.388;2022-10-16T14:03:40;99674.22;;;29.17;43.25
24234;BME280;12365;43.554;1.388;2022-10-16T14:06:12;99679.50;;;29.20;43.21
24234;BME280;12365;43.554;1.388;2022-10-16T14:08:42;99684.66;;;29.26;43.33
24234;BME280;12365;43.554;1.388;2022-10-16T14:11:08;99690.03;;;29.26;43.42
24234;BME280;12365;43.554;1.388;2022-10-16T14:13:37;99684.66;;;29.26;43.47
24234;BME280;12365;43.554;1.388;2022-10-16T14:16:10;99684.66;;;29.26;43.11
24234;BME280;12365;43.554;1.388;2022-10-16T14:18:40;99681.31;;;29.20;43.56
24234;BME280;12365;43.554;1.388;2022-10-16T14:21:07;99695.63;;;29.20;43.38
24234;BME280;12365;43.554;1.388;2022-10-16T14:23:38;99694.66;;;29.23;43.50
24234;BME280;12365;43.554;1.388;2022-10-16T14:28:37;99703.16;;;29.07;43.93
24234;BME280;12365;43.554;1.388;2022-10-16T14:31:23;99700.59;;;29.01;44.28
24234;BME280;12365;43.554;1.388;2022-10-16T14:33:49;99703.41;;;28.96;44.08
24234;BME280;12365;43.554;1.388;2022-10-16T14:36:16;99701.88;;;28.88;44.30
24234;BME280;12365;43.554;1.388;2022-10-16T14:39:06;99700.50;;;28.73;44.62
24234;BME280;12365;43.554;1.388;2022-10-16T14:41:45;99709.91;;;28.57;45.11
24234;BME280;12365;43.554;1.388;2022-10-16T14:44:12;99704.81;;;28.46;45.57
24234;BME280;12365;43.554;1.388;2022-10-16T14:46:40;99706.91;;;28.33;45.65
24234;BME280;12365;43.554;1.388;2022-10-16T14:51:35;99707.31;;;28.18;45.88
24234;BME280;12365;43.554;1.388;2022-10-16T14:54:01;99699.31;;;28.16;46.03
24234;BME280;12365;43.554;1.388;2022-10-16T14:56:30;99703.72;;;28.19;46.05
24234;BME280;12365;43.554;1.388;2022-10-16T14:58:56;99710.84;;;28.20;46.15
24234;BME280;12365;43.554;1.388;2022-10-16T15:01:22;99716.13;;;28.23;46.12
24234;BME280;12365;43.554;1.388;2022-10-16T15:03:47;99716.06;;;28.26;46.25
24234;BME280;12365;43.554;1.388;2022-10-16T15:06:15;99715.03;;;28.31;46.11
24234;BME280;12365;43.554;1.388;2022-10-16T15:08:41;99715.66;;;28.41;45.96